Time;durP1;ratioP1;P1;durP2;ratioP2;P2;SDS_P1;SDS_P2;PMS_P1;PMS_P2;Temp;Humidity;BMP_temperature;BMP_pressure;BME280_temperature;BME280_humidity;BME280_pressure;Samples;Min_cycle;Max_cycle;Signal;HPM_P1;HPM_P2
2022/07/24 00:01:18;;;;;;;5.80;3.52;;;21.50;82.60;;;;;;1847014;78;21032;-68
2022/07/24 00:03:47;;;;;;;4.22;3.25;;;21.50;82.90;;;;;;1846976;78;21009;-68
2022/07/24 00:06:16;;;;;;;4.15;3.58;;;21.50;82.80;;;;;;1846955;78;20996;-68
2022/07/24 00:08:45;;;;;;;4.75;3.95;;;21.50;82.80;;;;;;1846931;78;21012;-68
2022/07/24 00:11:14;;;;;;;4.17;3.77;;;21.60;82.90;;;;;;1847006;78;21423;-67
2022/07/24 00:13:43;;;;;;;6.35;3.58;;;21.50;82.80;;;;;;1846937;78;20992;-67
2022/07/24 00:16:12;;;;;;;3.92;3.42;;;21.60;82.90;;;;;;1846985;78;21017;-67
2022/07/24 00:18:41;;;;;;;4.15;3.60;;;21.50;83.00;;;;;;1846941;78;21454;-67
2022/07/24 00:21:10;;;;;;;4.05;3.50;;;21.50;83.00;;;;;;1846939;78;21044;-68
2022/07/24 00:23:39;;;;;;;4.08;3.67;;;21.50;82.80;;;;;;1846907;78;20981;-68
2022/07/24 00:26:08;;;;;;;5.85;3.70;;;21.50;82.80;;;;;;1847053;78;21467;-68
2022/07/24 00:28:37;;;;;;;5.28;3.42;;;21.50;82.70;;;;;;1846887;78;21078;-68
2022/07/24 00:31:06;;;;;;;4.05;3.65;;;21.50;83.00;;;;;;1846961;78;21008;-68
2022/07/24 00:33:35;;;;;;;6.17;3.55;;;21.50;83.70;;;;;;1846921;78;21490;-67
2022/07/24 00:36:05;;;;;;;4.53;3.87;;;21.50;83.20;;;;;;1847029;77;21103;-67
2022/07/24 00:38:34;;;;;;;5.35;3.52;;;21.50;83.50;;;;;;1846929;78;20996;-68
2022/07/24 00:41:04;;;;;;;4.75;3.70;;;21.40;83.40;;;;;;1846913;78;21024;-68
2022/07/24 00:43:32;;;;;;;4.10;3.70;;;21.40;83.50;;;;;;1847023;78;20988;-68
2022/07/24 00:46:01;;;;;;;5.12;3.70;;;21.40;83.60;;;;;;1846902;78;21075;-68
2022/07/24 00:48:30;;;;;;;4.15;3.27;;;21.40;83.60;;;;;;1846805;78;21078;-67
2022/07/24 00:50:59;;;;;;;4.72;3.85;;;21.50;83.50;;;;;;1846797;78;20997;-68
2022/07/24 00:53:30;;;;;;;5.50;3.65;;;21.40;83.70;;;;;;1846815;78;21028;-68
2022/07/24 00:55:59;;;;;;;5.47;3.85;;;21.40;83.60;;;;;;1846871;78;21020;-67
2022/07/24 00:58:27;;;;;;;3.58;3.27;;;21.40;83.60;;;;;;1846760;78;21036;-68
2022/07/24 01:00:56;;;;;;;4.42;3.72;;;21.40;83.70;;;;;;1846783;78;21074;-68
2022/07/24 01:03:25;;;;;;;5.70;3.45;;;21.40;84.30;;;;;;1846798;78;21001;-67
2022/07/24 01:05:55;;;;;;;3.87;3.25;;;21.40;83.80;;;;;;1846873;78;21033;-67
2022/07/24 01:08:24;;;;;;;3.50;3.20;;;21.40;83.70;;;;;;1846819;78;21009;-68
2022/07/24 01:10:53;;;;;;;5.62;3.67;;;21.40;83.80;;;;;;1846848;78;21013;-67
2022/07/24 01:13:22;;;;;;;3.90;3.27;;;21.40;83.80;;;;;;1846735;78;21471;-68
2022/07/24 01:15:51;;;;;;;3.85;3.30;;;21.40;83.60;;;;;;1846898;78;21012;-67
2022/07/24 01:18:20;;;;;;;3.35;3.02;;;21.40;83.60;;;;;;1846843;78;21031;-68
2022/07/24 01:20:50;;;;;;;3.50;3.17;;;21.40;83.70;;;;;;1846829;78;21078;-67
2022/07/24 01:23:19;;;;;;;3.80;3.17;;;21.40;83.70;;;;;;1846790;78;21013;-68
2022/07/24 01:25:48;;;;;;;4.10;3.70;;;21.40;83.70;;;;;;1846779;78;21106;-68
2022/07/24 01:28:18;;;;;;;4.30;3.22;;;21.40;83.50;;;;;;1846865;78;21439;-68
2022/07/24 01:30:47;;;;;;;3.30;3.10;;;21.40;83.60;;;;;;1846764;78;21032;-67
2022/07/24 01:33:16;;;;;;;3.50;3.20;;;21.40;83.70;;;;;;1846804;78;21090;-68
2022/07/24 01:35:45;;;;;;;4.95;3.37;;;21.40;83.80;;;;;;1847702;76;21516;-68
2022/07/24 01:38:14;;;;;;;4.53;3.22;;;21.50;83.60;;;;;;1849734;77;21008;-67
2022/07/24 01:40:43;;;;;;;6.72;3.45;;;21.50;83.50;;;;;;1849723;77;20992;-67
2022/07/24 01:43:12;;;;;;;4.47;3.47;;;21.50;83.30;;;;;;1849703;77;21032;-68
2022/07/24 01:45:41;;;;;;;5.22;3.30;;;21.50;83.30;;;;;;1849798;77;21540;-68
2022/07/24 01:48:11;;;;;;;4.70;3.20;;;21.40;83.30;;;;;;1849696;77;21004;-67
2022/07/24 01:50:39;;;;;;;7.40;3.50;;;21.50;83.40;;;;;;1849752;77;21066;-68
2022/07/24 01:53:09;;;;;;;4.17;3.45;;;21.40;83.50;;;;;;1849703;77;21021;-67
2022/07/24 01:55:37;;;;;;;4.87;3.62;;;21.50;83.40;;;;;;1849834;77;21016;-68
2022/07/24 01:58:07;;;;;;;4.10;3.58;;;21.50;83.40;;;;;;1849757;77;21044;-68
2022/07/24 02:00:36;;;;;;;3.85;3.30;;;21.50;83.40;;;;;;1849726;77;21430;-68
2022/07/24 02:03:05;;;;;;;6.45;3.40;;;21.50;83.20;;;;;;1849737;77;21012;-68
2022/07/24 02:05:34;;;;;;;5.33;3.70;;;21.50;83.10;;;;;;1849728;77;21079;-68
2022/07/24 02:08:02;;;;;;;4.20;3.67;;;21.60;83.00;;;;;;1849715;77;21023;-67
2022/07/24 02:10:31;;;;;;;3.25;2.95;;;21.60;82.90;;;;;;1849889;77;21012;-67
2022/07/24 02:13:00;;;;;;;3.52;3.22;;;21.60;83.00;;;;;;1849873;77;21078;-68
2022/07/24 02:15:29;;;;;;;4.37;3.47;;;21.60;83.00;;;;;;1849850;77;20992;-68
2022/07/24 02:18:00;;;;;;;5.50;3.42;;;21.60;82.90;;;;;;1849915;77;21502;-68
2022/07/24 02:20:30;;;;;;;3.47;2.90;;;21.60;82.70;;;;;;1849975;77;21458;-67
2022/07/24 02:22:58;;;;;;;5.90;3.22;;;21.60;82.60;;;;;;1849989;77;21008;-68
2022/07/24 02:25:27;;;;;;;5.95;3.20;;;21.60;82.70;;;;;;1849966;77;21012;-68
2022/07/24 02:27:56;;;;;;;4.65;3.45;;;21.50;82.70;;;;;;1850045;77;21482;-68
2022/07/24 02:30:25;;;;;;;6.42;3.20;;;21.50;82.70;;;;;;1849921;77;21113;-68
2022/07/24 02:32:54;;;;;;;4.45;3.20;;;21.50;82.70;;;;;;1850014;76;21078;-68
2022/07/24 02:35:23;;;;;;;4.20;3.60;;;21.50;82.70;;;;;;1849981;77;21024;-68
2022/07/24 02:37:52;;;;;;;4.60;3.27;;;21.60;82.50;;;;;;1849964;77;21044;-68
2022/07/24 02:40:21;;;;;;;3.30;3.00;;;21.60;82.40;;;;;;1849903;77;21024;-68
2022/07/24 02:42:50;;;;;;;3.40;2.85;;;21.70;82.20;;;;;;1849914;77;20977;-68
2022/07/24 02:45:19;;;;;;;6.03;4.08;;;21.70;82.00;;;;;;1849943;77;20992;-67
2022/07/24 02:47:50;;;;;;;5.05;3.62;;;21.80;81.90;;;;;;1849995;77;21078;-68
2022/07/24 02:50:20;;;;;;;9.28;4.55;;;21.90;81.50;;;;;;1849993;77;21136;-68
2022/07/24 02:52:50;;;;;;;3.72;3.30;;;21.90;81.00;;;;;;1849927;77;20984;-68
2022/07/24 02:55:19;;;;;;;4.55;3.30;;;22.00;81.00;;;;;;1849938;77;21016;-68
2022/07/24 02:57:48;;;;;;;4.25;2.87;;;22.00;81.10;;;;;;1850005;76;21066;-68
2022/07/24 03:00:17;;;;;;;3.08;2.87;;;22.00;81.10;;;;;;1849978;77;21066;-68
2022/07/24 03:02:47;;;;;;;6.17;3.55;;;22.00;81.10;;;;;;1849946;77;21579;-68
2022/07/24 03:05:15;;;;;;;4.92;3.00;;;22.00;81.00;;;;;;1850030;76;21028;-68
2022/07/24 03:07:44;;;;;;;4.42;2.80;;;22.10;80.90;;;;;;1849965;77;21016;-68
2022/07/24 03:10:13;;;;;;;5.95;3.40;;;22.10;80.80;;;;;;1849925;77;21556;-68
2022/07/24 03:12:43;;;;;;;5.78;3.22;;;22.20;80.80;;;;;;1850009;77;21074;-68
2022/07/24 03:15:13;;;;;;;3.45;3.10;;;22.20;80.50;;;;;;1849972;77;21070;-68
2022/07/24 03:17:51;;;;;;;5.08;3.02;;;22.20;80.30;;;;;;1849923;77;20996;-68
2022/07/24 03:20:20;;;;;;;3.60;3.30;;;22.30;80.40;;;;;;1849492;77;21078;-68
2022/07/24 03:22:49;;;;;;;4.40;3.00;;;22.30;80.30;;;;;;1849855;77;21078;-69
2022/07/24 03:25:18;;;;;;;3.72;3.00;;;22.40;80.10;;;;;;1850021;76;20997;-69
2022/07/24 03:27:48;;;;;;;3.55;2.98;;;22.40;79.90;;;;;;1849937;77;21024;-70
2022/07/24 03:30:18;;;;;;;3.60;3.10;;;22.50;80.00;;;;;;1849943;77;21478;-70
2022/07/24 03:32:47;;;;;;;4.62;3.20;;;22.50;79.50;;;;;;1849910;76;21090;-70
2022/07/24 03:35:16;;;;;;;3.98;3.30;;;22.50;79.10;;;;;;1849998;77;21474;-71
2022/07/24 03:37:45;;;;;;;3.50;3.12;;;22.60;79.10;;;;;;1848105;77;21052;-71
2022/07/24 03:40:14;;;;;;;3.40;3.10;;;22.70;79.10;;;;;;1846917;78;21126;-70
2022/07/24 03:42:43;;;;;;;3.12;2.52;;;22.70;78.80;;;;;;1846949;78;21077;-71
2022/07/24 03:45:12;;;;;;;3.62;3.33;;;22.80;78.40;;;;;;1846930;78;21509;-70
2022/07/24 03:47:41;;;;;;;3.37;2.95;;;22.80;78.10;;;;;;1846869;78;21086;-71
2022/07/24 03:50:10;;;;;;;4.00;3.22;;;22.90;77.70;;;;;;1846863;78;20997;-70
2022/07/24 03:52:39;;;;;;;3.45;2.80;;;22.90;77.30;;;;;;1846890;78;21486;-70
2022/07/24 03:55:08;;;;;;;3.90;3.25;;;23.00;77.10;;;;;;1846803;78;21066;-70
2022/07/24 03:57:37;;;;;;;5.47;3.45;;;23.10;76.60;;;;;;1846892;78;21012;-70
2022/07/24 04:00:08;;;;;;;3.92;2.75;;;23.10;76.30;;;;;;1846821;78;20988;-70
2022/07/24 04:02:38;;;;;;;5.10;2.90;;;23.20;76.00;;;;;;1846358;78;21481;-70
2022/07/24 04:05:08;;;;;;;4.62;3.00;;;23.20;75.80;;;;;;1846850;78;20992;-70
2022/07/24 04:07:38;;;;;;;4.03;3.22;;;23.20;75.80;;;;;;1846813;78;21059;-70
2022/07/24 04:10:09;;;;;;;5.37;3.80;;;23.30;75.70;;;;;;1846808;78;21024;-70
2022/07/24 04:12:37;;;;;;;4.00;3.22;;;23.30;75.70;;;;;;1846716;78;21075;-70
2022/07/24 04:15:08;;;;;;;4.75;3.52;;;23.40;76.00;;;;;;1846831;78;21508;-69
2022/07/24 04:17:43;;;;;;;4.78;3.65;;;23.50;75.80;;;;;;1846774;78;21138;-70
2022/07/24 04:20:11;;;;;;;;;;;23.50;75.40;;;;;;1849521;78;20992;-69
2022/07/24 04:22:40;;;;;;;4.95;3.98;;;23.60;75.40;;;;;;1846710;78;20139;-70
2022/07/24 04:25:09;;;;;;;4.08;3.67;;;23.60;75.40;;;;;;1846717;78;21009;-70
2022/07/24 04:27:38;;;;;;;10.78;4.25;;;23.70;75.30;;;;;;1846841;78;20977;-70
2022/07/24 04:30:08;;;;;;;4.85;3.67;;;23.70;75.20;;;;;;1846773;78;20997;-70
2022/07/24 04:32:37;;;;;;;4.15;3.75;;;23.70;75.30;;;;;;1846737;78;21008;-70
2022/07/24 04:35:07;;;;;;;4.20;3.70;;;23.70;75.30;;;;;;1846723;78;21066;-70
2022/07/24 04:37:36;;;;;;;13.68;4.55;;;23.80;75.30;;;;;;1847554;77;21052;-70
2022/07/24 04:40:06;;;;;;;5.00;4.03;;;23.80;75.20;;;;;;1849700;77;21133;-70
2022/07/24 04:42:35;;;;;;;8.48;6.55;;;23.90;75.20;;;;;;1849584;77;20989;-70
2022/07/24 04:45:05;;;;;;;4.50;4.10;;;23.90;75.00;;;;;;1849653;77;21466;-70
2022/07/24 04:47:34;;;;;;;4.87;3.70;;;24.00;74.80;;;;;;1849694;77;21000;-70
2022/07/24 04:50:03;;;;;;;3.80;3.40;;;24.10;74.80;;;;;;1849636;77;21012;-70
2022/07/24 04:52:32;;;;;;;7.08;5.42;;;24.10;74.60;;;;;;1849758;77;20968;-69
2022/07/24 04:55:01;;;;;;;8.43;4.60;;;24.10;74.60;;;;;;1849602;77;21058;-68
2022/07/24 04:57:30;;;;;;;5.87;4.70;;;24.30;74.50;;;;;;1849514;77;21466;-68
2022/07/24 04:59:59;;;;;;;5.35;3.60;;;24.30;74.30;;;;;;1849588;77;20976;-68
2022/07/24 05:02:29;;;;;;;7.50;5.15;;;24.50;74.10;;;;;;1849519;77;21017;-68
2022/07/24 05:04:58;;;;;;;6.28;3.92;;;24.50;73.80;;;;;;1849654;77;21058;-68
2022/07/24 05:07:26;;;;;;;8.55;4.58;;;24.60;73.60;;;;;;1849674;77;20968;-69
2022/07/24 05:09:55;;;;;;;8.55;5.40;;;24.60;73.40;;;;;;1849757;76;21082;-68
2022/07/24 05:12:25;;;;;;;6.67;3.55;;;24.70;73.10;;;;;;1849720;77;21028;-69
2022/07/24 05:14:54;;;;;;;3.33;2.70;;;24.80;72.40;;;;;;1849759;77;21435;-69
2022/07/24 05:17:23;;;;;;;3.17;2.67;;;24.90;71.50;;;;;;1849700;77;21009;-69
2022/07/24 05:19:52;;;;;;;4.70;3.02;;;24.90;70.80;;;;;;1849778;77;21032;-69
2022/07/24 05:22:21;;;;;;;5.05;2.70;;;25.00;70.60;;;;;;1849638;77;21466;-69
2022/07/24 05:24:50;;;;;;;5.03;2.98;;;25.00;70.90;;;;;;1849685;77;21004;-69
2022/07/24 05:27:19;;;;;;;3.00;2.70;;;25.00;70.80;;;;;;1849735;77;21012;-69
2022/07/24 05:29:48;;;;;;;4.42;3.10;;;25.10;71.00;;;;;;1849653;77;21486;-69
2022/07/24 05:32:17;;;;;;;3.75;2.95;;;25.20;71.20;;;;;;1849813;77;21016;-69
2022/07/24 05:34:46;;;;;;;3.77;3.02;;;25.30;71.20;;;;;;1849654;77;21013;-70
2022/07/24 05:37:15;;;;;;;5.47;2.98;;;25.40;70.50;;;;;;1849698;77;21447;-69
2022/07/24 05:39:44;;;;;;;4.65;3.02;;;25.50;70.40;;;;;;1849682;76;21036;-69
2022/07/24 05:42:13;;;;;;;3.00;2.55;;;25.60;69.80;;;;;;1849630;77;21070;-70
2022/07/24 05:44:42;;;;;;;2.75;2.55;;;25.60;69.50;;;;;;1849926;76;21086;-71
2022/07/24 05:47:11;;;;;;;4.20;3.25;;;25.60;69.20;;;;;;1849935;77;21011;-71
2022/07/24 05:49:40;;;;;;;3.35;2.72;;;25.60;69.30;;;;;;1849764;77;21067;-70
2022/07/24 05:52:09;;;;;;;4.37;2.95;;;25.60;69.40;;;;;;1849738;77;21521;-70
2022/07/24 05:54:38;;;;;;;3.67;2.67;;;25.60;69.40;;;;;;1849791;77;21032;-71
2022/07/24 05:57:07;;;;;;;4.75;2.85;;;25.70;69.40;;;;;;1849798;77;21059;-71
2022/07/24 05:59:36;;;;;;;3.25;2.95;;;25.80;68.80;;;;;;1849875;77;21587;-70
2022/07/24 06:02:05;;;;;;;3.87;2.95;;;25.80;68.80;;;;;;1849765;77;21025;-71
2022/07/24 06:04:35;;;;;;;5.95;4.15;;;25.90;68.30;;;;;;1849836;77;21020;-70
2022/07/24 06:07:04;;;;;;;4.22;2.83;;;26.00;67.90;;;;;;1849795;77;21016;-70
2022/07/24 06:09:33;;;;;;;5.70;3.20;;;26.00;67.50;;;;;;1849746;76;21087;-70
2022/07/24 06:12:02;;;;;;;4.45;3.42;;;26.00;67.30;;;;;;1849900;77;21438;-70
2022/07/24 06:14:32;;;;;;;8.45;6.20;;;26.00;67.50;;;;;;1849893;77;21020;-70
2022/07/24 06:17:02;;;;;;;4.35;3.75;;;26.10;67.60;;;;;;1849925;77;21118;-71
2022/07/24 06:19:31;;;;;;;4.90;3.22;;;26.20;67.60;;;;;;1849895;77;21027;-70
2022/07/24 06:21:59;;;;;;;3.05;2.80;;;26.20;66.10;;;;;;1849824;77;21095;-70
2022/07/24 06:24:28;;;;;;;2.92;2.72;;;26.20;65.60;;;;;;1849855;77;21000;-70
2022/07/24 06:26:57;;;;;;;5.05;2.90;;;26.30;65.40;;;;;;1849894;77;21021;-70
2022/07/24 06:29:26;;;;;;;3.47;3.17;;;26.30;64.80;;;;;;1849857;77;20996;-70
2022/07/24 06:31:55;;;;;;;3.15;2.85;;;26.40;64.50;;;;;;1849808;77;21091;-70
2022/07/24 06:34:24;;;;;;;4.47;2.70;;;26.50;63.70;;;;;;1849780;77;21078;-70
2022/07/24 06:36:53;;;;;;;3.65;3.08;;;26.50;62.90;;;;;;1849843;77;21510;-71
2022/07/24 06:39:22;;;;;;;3.77;2.90;;;26.50;62.60;;;;;;1844244;77;21029;-71
2022/07/24 06:41:51;;;;;;;3.42;2.70;;;26.50;61.80;;;;;;1838406;78;21472;-71
2022/07/24 06:44:22;;;;;;;3.77;3.15;;;26.50;62.20;;;;;;1835023;78;21070;-70
2022/07/24 06:46:51;;;;;;;3.35;2.75;;;26.60;62.40;;;;;;1838354;78;20974;-70
2022/07/24 06:49:20;;;;;;;3.10;2.80;;;26.70;62.90;;;;;;1838373;78;21083;-70
2022/07/24 06:51:49;;;;;;;10.25;3.50;;;26.70;62.50;;;;;;1838447;78;21405;-69
2022/07/24 06:54:18;;;;;;;4.28;2.87;;;26.90;61.70;;;;;;1838341;78;20997;-69
2022/07/24 06:56:47;;;;;;;6.72;3.05;;;26.90;61.40;;;;;;1838388;78;20985;-69
2022/07/24 06:59:15;;;;;;;4.78;2.80;;;27.00;61.50;;;;;;1838327;78;21044;-69
2022/07/24 07:01:44;;;;;;;6.00;2.92;;;27.00;61.40;;;;;;1838287;78;21372;-69
2022/07/24 07:04:13;;;;;;;3.50;3.20;;;27.10;61.10;;;;;;1838364;78;20982;-69
2022/07/24 07:06:42;;;;;;;5.20;2.83;;;27.10;60.20;;;;;;1838406;78;20989;-69
2022/07/24 07:09:11;;;;;;;4.87;2.92;;;27.30;60.10;;;;;;1838371;78;21469;-69
2022/07/24 07:11:40;;;;;;;7.22;3.35;;;27.30;59.90;;;;;;1838334;78;20970;-69
2022/07/24 07:14:09;;;;;;;4.42;3.08;;;27.30;59.90;;;;;;1838472;78;20962;-70
2022/07/24 07:16:38;;;;;;;3.20;2.90;;;27.40;59.80;;;;;;1838338;78;21508;-70
2022/07/24 07:19:07;;;;;;;4.08;2.80;;;27.50;59.40;;;;;;1838444;78;20969;-69
2022/07/24 07:21:37;;;;;;;3.92;3.12;;;27.50;59.50;;;;;;1838265;78;20997;-69
2022/07/24 07:24:06;;;;;;;5.55;2.87;;;27.50;59.20;;;;;;1838310;78;20974;-69
2022/07/24 07:26:35;;;;;;;3.02;2.72;;;27.40;59.80;;;;;;1838294;78;20970;-69
2022/07/24 07:29:04;;;;;;;4.05;3.30;;;27.30;60.00;;;;;;1838257;78;21420;-69
2022/07/24 07:31:33;;;;;;;3.02;2.67;;;27.10;60.40;;;;;;1838283;78;21044;-69
2022/07/24 07:34:02;;;;;;;5.45;3.10;;;27.00;60.40;;;;;;1838316;78;20990;-69
2022/07/24 07:36:31;;;;;;;3.10;2.80;;;26.80;60.60;;;;;;1838295;78;21505;-68
2022/07/24 07:39:00;;;;;;;2.92;2.72;;;26.70;61.20;;;;;;1838216;77;20986;-68
2022/07/24 07:41:29;;;;;;;4.03;3.02;;;26.60;61.40;;;;;;1838332;78;20961;-69
2022/07/24 07:43:58;;;;;;;3.33;2.92;;;26.50;61.60;;;;;;1838323;78;21548;-68
2022/07/24 07:46:27;;;;;;;6.97;3.33;;;26.40;62.10;;;;;;1838287;78;21127;-69
2022/07/24 07:48:56;;;;;;;8.25;3.40;;;26.30;62.40;;;;;;1838427;78;20977;-68
2022/07/24 07:51:25;;;;;;;4.50;3.12;;;26.20;63.20;;;;;;1838307;78;21465;-68
2022/07/24 07:53:54;;;;;;;3.70;3.40;;;26.20;63.80;;;;;;1838321;78;21014;-69
2022/07/24 07:56:23;;;;;;;3.05;2.85;;;26.30;63.80;;;;;;1838302;78;20969;-68
2022/07/24 07:58:52;;;;;;;6.83;3.25;;;26.50;62.80;;;;;;1838383;78;21448;-67
2022/07/24 08:01:21;;;;;;;6.90;3.30;;;26.70;62.50;;;;;;1838297;78;20974;-70
2022/07/24 08:03:50;;;;;;;3.27;2.98;;;27.00;61.70;;;;;;1838270;78;21036;-70
2022/07/24 08:06:19;;;;;;;3.50;3.20;;;27.10;61.30;;;;;;1838365;78;21009;-70
2022/07/24 08:08:48;;;;;;;15.08;5.50;;;27.10;61.40;;;;;;1838314;78;21073;-70
2022/07/24 08:11:17;;;;;;;10.13;5.45;;;27.10;63.50;;;;;;1838278;78;20981;-70
2022/07/24 08:13:45;;;;;;;13.93;6.30;;;26.90;64.30;;;;;;1838284;78;21448;-68
2022/07/24 08:16:14;;;;;;;16.23;6.47;;;26.50;66.00;;;;;;1838236;78;21047;-68
2022/07/24 08:18:43;;;;;;;8.93;5.95;;;26.10;67.50;;;;;;1838334;78;20986;-68
2022/07/24 08:21:22;;;;;;;9.83;4.95;;;25.70;69.10;;;;;;1838333;78;20985;-68
2022/07/24 08:23:50;;;;;;;8.38;5.10;;;25.50;70.60;;;;;;1838287;78;21471;-67
2022/07/24 08:26:20;;;;;;;8.55;5.00;;;25.30;71.20;;;;;;1838382;78;21514;-67
2022/07/24 08:28:48;;;;;;;7.97;5.28;;;25.30;72.10;;;;;;1838267;78;21031;-67
2022/07/24 08:31:17;;;;;;;9.03;5.40;;;25.30;73.20;;;;;;1838268;78;21044;-67
2022/07/24 08:33:46;;;;;;;6.50;3.98;;;25.30;73.50;;;;;;1838295;78;21514;-67
2022/07/24 08:36:15;;;;;;;3.90;3.50;;;25.30;73.10;;;;;;1838185;78;21043;-67
2022/07/24 08:38:43;;;;;;;6.03;4.55;;;25.30;72.70;;;;;;1838222;78;20969;-66
2022/07/24 08:41:14;;;;;;;4.28;3.72;;;25.50;73.10;;;;;;1838283;77;21099;-67
2022/07/24 08:43:43;;;;;;;3.50;3.20;;;25.70;73.10;;;;;;1838196;78;21065;-67
2022/07/24 08:46:12;;;;;;;4.85;3.25;;;25.80;71.80;;;;;;1838186;78;21009;-67
2022/07/24 08:48:45;;;;;;;6.15;3.90;;;26.00;71.20;;;;;;1838229;78;21036;-67
2022/07/24 08:51:15;;;;;;;3.67;3.35;;;26.00;71.50;;;;;;1838192;78;20966;-68
2022/07/24 08:53:44;;;;;;;4.40;3.58;;;26.00;71.50;;;;;;1838170;78;20969;-69
2022/07/24 08:56:13;;;;;;;4.67;3.60;;;26.20;72.00;;;;;;1838320;78;21014;-68
2022/07/24 08:58:43;;;;;;;7.37;4.50;;;26.30;71.60;;;;;;1838257;78;21053;-68
2022/07/24 09:01:12;;;;;;;8.25;5.30;;;26.40;71.20;;;;;;1838271;78;20977;-69
2022/07/24 09:03:44;;;;;;;4.85;4.05;;;26.50;71.20;;;;;;1838216;78;20974;-69
2022/07/24 09:06:13;;;;;;;10.80;5.42;;;26.70;71.30;;;;;;1837810;78;21439;-69
2022/07/24 09:08:43;;;;;;;9.55;4.78;;;26.70;70.90;;;;;;1838269;78;20982;-69
2022/07/24 09:11:12;;;;;;;4.28;3.70;;;26.60;71.00;;;;;;1838332;78;21364;-68
2022/07/24 09:16:28;;;;;;;7.37;3.95;;;26.40;71.00;;;;;;1838220;78;21035;-68
2022/07/24 09:19:10;;;;;;;4.40;3.22;;;26.30;71.10;;;;;;1838278;78;20985;-68
2022/07/24 09:21:40;;;;;;;5.22;2.90;;;26.10;71.10;;;;;;1838270;78;21052;-69
2022/07/24 09:24:20;;;;;;;5.20;3.47;;;25.90;71.10;;;;;;1838351;78;20989;-69
2022/07/24 09:26:58;;;;;;;6.25;4.12;;;25.70;71.40;;;;;;1838394;78;20982;-69
2022/07/24 09:29:27;;;;;;;3.50;3.20;;;25.60;71.90;;;;;;1838384;78;21013;-69
2022/07/24 09:32:01;;;;;;;3.33;2.87;;;25.50;72.40;;;;;;1838385;78;20987;-68
2022/07/24 09:34:32;;;;;;;8.00;3.52;;;25.60;72.90;;;;;;1838498;78;20982;-69
2022/07/24 09:37:08;;;;;;;3.25;2.90;;;25.70;73.10;;;;;;1837491;78;20985;-67
2022/07/24 09:39:38;;;;;;;3.05;2.80;;;25.70;72.40;;;;;;1837789;78;20986;-67
2022/07/24 09:42:08;;;;;;;3.12;2.83;;;25.70;72.10;;;;;;1838367;77;21009;-68
2022/07/24 09:44:37;;;;;;;4.70;3.55;;;25.50;72.20;;;;;;1838351;78;21018;-67
2022/07/24 09:47:09;;;;;;;7.53;6.72;;;25.40;72.50;;;;;;1838374;78;21040;-67
2022/07/24 09:49:39;;;;;;;3.90;3.50;;;25.20;72.90;;;;;;1838378;78;21486;-67
2022/07/24 09:52:13;;;;;;;5.58;4.08;;;25.10;73.30;;;;;;1838245;78;20986;-67
2022/07/24 09:54:51;;;;;;;3.62;3.33;;;25.00;73.60;;;;;;1838548;78;20989;-67
2022/07/24 09:57:25;;;;;;;3.55;3.25;;;25.00;74.00;;;;;;1838458;78;21444;-68
2022/07/24 09:59:57;;;;;;;3.87;3.10;;;25.10;74.40;;;;;;1838562;78;21075;-67
2022/07/24 10:02:28;;;;;;;3.60;2.80;;;25.30;74.10;;;;;;1838457;78;20982;-68
2022/07/24 10:04:59;;;;;;;5.67;3.52;;;25.30;72.90;;;;;;1838457;78;20965;-68
2022/07/24 10:07:30;;;;;;;4.55;3.22;;;25.30;72.50;;;;;;1838453;78;21436;-68
2022/07/24 10:10:00;;;;;;;4.28;3.10;;;25.30;72.30;;;;;;1838392;78;20946;-68
2022/07/24 10:12:31;;;;;;;6.20;2.95;;;25.30;72.70;;;;;;1838437;78;21478;-68
2022/07/24 10:15:01;;;;;;;3.55;3.25;;;25.30;73.20;;;;;;1838348;78;21039;-68
2022/07/24 10:17:36;;;;;;;3.60;3.30;;;25.30;73.20;;;;;;1838343;78;21055;-68
2022/07/24 10:20:06;;;;;;;5.95;3.22;;;25.20;73.30;;;;;;1834925;78;20961;-68
2022/07/24 10:22:37;;;;;;;3.92;3.62;;;25.30;73.60;;;;;;1838198;78;20981;-69
2022/07/24 10:25:08;;;;;;;3.37;3.02;;;25.30;73.40;;;;;;1835411;78;21052;-69
2022/07/24 10:27:41;;;;;;;3.12;2.90;;;25.40;73.30;;;;;;1838222;78;20989;-69
2022/07/24 10:30:11;;;;;;;5.97;3.80;;;25.50;72.60;;;;;;1838255;78;21044;-70
2022/07/24 10:32:40;;;;;;;4.03;3.10;;;25.60;72.00;;;;;;1838303;78;21483;-69
2022/07/24 10:35:23;;;;;;;3.40;2.92;;;25.70;71.80;;;;;;1838315;78;21044;-69
2022/07/24 10:38:07;;;;;;;6.83;5.17;;;25.80;71.60;;;;;;1838302;78;21433;-69
2022/07/24 10:40:47;;;;;;;3.08;2.60;;;25.90;71.60;;;;;;1837871;78;20981;-68
2022/07/24 10:43:18;;;;;;;2.77;2.55;;;26.00;70.70;;;;;;1838081;77;21055;-69
2022/07/24 10:45:56;;;;;;;3.67;2.58;;;26.20;70.40;;;;;;1838258;78;21068;-69
2022/07/24 10:48:31;;;;;;;3.35;2.75;;;26.40;70.70;;;;;;1838240;78;20990;-69
2022/07/24 10:51:07;;;;;;;3.12;2.90;;;26.60;70.20;;;;;;1838376;78;20985;-68
2022/07/24 10:53:51;;;;;;;4.95;2.72;;;26.70;69.70;;;;;;1838314;78;20970;-68
2022/07/24 10:56:28;;;;;;;5.10;3.02;;;26.70;70.10;;;;;;1838315;78;21509;-68
2022/07/24 10:59:03;;;;;;;5.17;3.10;;;26.80;69.30;;;;;;1838296;78;20954;-67
2022/07/24 11:01:35;;;;;;;2.67;2.47;;;26.80;69.50;;;;;;1838200;78;20946;-68
2022/07/24 11:04:06;;;;;;;3.80;2.52;;;26.90;69.00;;;;;;1838296;78;20997;-68
2022/07/24 11:06:49;;;;;;;3.52;2.62;;;27.00;68.50;;;;;;1834399;78;20978;-68
2022/07/24 11:09:20;;;;;;;4.40;2.83;;;27.10;68.80;;;;;;1838363;78;20981;-68
2022/07/24 11:12:00;;;;;;;4.25;3.00;;;27.10;68.20;;;;;;1838362;78;20982;-67
2022/07/24 11:14:41;;;;;;;3.10;2.58;;;27.20;67.90;;;;;;1838351;78;20993;-68
2022/07/24 11:17:43;;;;;;;4.22;2.35;;;27.30;67.30;;;;;;1838376;78;20970;-67
2022/07/24 11:20:15;;;;;;;2.90;2.70;;;27.40;67.50;;;;;;1838362;78;21043;-66
2022/07/24 11:22:52;;;;;;;3.60;2.58;;;27.60;66.20;;;;;;1838271;78;21467;-67
2022/07/24 11:25:26;;;;;;;3.52;2.65;;;27.60;64.30;;;;;;1838322;78;21040;-67
2022/07/24 11:27:57;;;;;;;4.22;3.65;;;27.70;63.90;;;;;;1838197;78;21514;-68
2022/07/24 11:30:29;;;;;;;2.83;2.62;;;27.80;64.60;;;;;;1838468;78;20996;-69
2022/07/24 11:32:59;;;;;;;3.45;2.50;;;27.80;64.10;;;;;;1838438;78;20985;-69
2022/07/24 11:35:29;;;;;;;5.35;2.98;;;27.70;63.20;;;;;;1838553;78;21005;-68
2022/07/24 11:38:01;;;;;;;7.03;2.35;;;27.60;63.40;;;;;;1838370;78;21043;-68
2022/07/24 11:40:30;;;;;;;3.52;2.20;;;27.60;63.10;;;;;;1838301;78;21053;-69
2022/07/24 11:43:01;;;;;;;3.90;2.85;;;27.60;62.90;;;;;;1844629;77;21063;-68
2022/07/24 11:45:30;;;;;;;3.70;2.80;;;27.70;62.70;;;;;;1846832;78;21077;-69
2022/07/24 11:47:58;;;;;;;3.05;2.60;;;27.80;62.40;;;;;;1846856;78;21020;-69
2022/07/24 11:50:28;;;;;;;3.67;2.50;;;27.90;61.80;;;;;;1846797;78;21126;-69
2022/07/24 11:52:57;;;;;;;4.97;2.72;;;27.80;61.70;;;;;;1846757;78;21483;-70
2022/07/24 11:55:26;;;;;;;4.55;2.77;;;27.80;62.10;;;;;;1846850;78;21071;-69
2022/07/24 11:57:56;;;;;;;2.92;2.65;;;27.80;62.60;;;;;;1846734;78;21012;-69
2022/07/24 12:00:27;;;;;;;2.35;2.15;;;27.80;62.60;;;;;;1846733;78;21008;-68
2022/07/24 12:02:58;;;;;;;3.00;2.70;;;27.90;62.30;;;;;;1846718;78;21066;-68
2022/07/24 12:05:33;;;;;;;3.27;2.75;;;27.90;62.30;;;;;;1846521;78;21016;-68
2022/07/24 12:08:04;;;;;;;2.95;2.75;;;27.80;62.70;;;;;;1846886;78;21550;-68
2022/07/24 12:10:35;;;;;;;3.92;2.83;;;27.70;62.10;;;;;;1846820;78;21079;-68
2022/07/24 12:13:04;;;;;;;3.98;2.85;;;27.60;62.70;;;;;;1846821;78;21090;-68
2022/07/24 12:15:34;;;;;;;4.33;2.87;;;27.50;62.90;;;;;;1846983;78;21016;-68
2022/07/24 12:18:06;;;;;;;2.98;2.67;;;27.40;62.20;;;;;;1846368;78;21083;-68
2022/07/24 12:20:40;;;;;;;5.28;2.95;;;27.40;62.00;;;;;;1846780;78;21062;-67
2022/07/24 12:23:15;;;;;;;4.75;2.80;;;27.50;62.60;;;;;;1846820;78;21075;-68
2022/07/24 12:25:45;;;;;;;5.72;3.10;;;27.60;62.10;;;;;;1846779;78;21062;-68
2022/07/24 12:28:19;;;;;;;6.80;3.05;;;27.70;61.60;;;;;;1846864;78;20993;-67
2022/07/24 12:30:49;;;;;;;4.23;3.00;;;27.70;61.50;;;;;;1847027;78;21012;-67
2022/07/24 12:33:31;;;;;;;3.37;3.08;;;27.80;61.50;;;;;;1846773;78;21123;-68
2022/07/24 12:36:16;;;;;;;3.30;3.00;;;27.90;61.60;;;;;;1846815;78;21467;-67
2022/07/24 12:38:52;;;;;;;6.47;2.92;;;27.90;61.60;;;;;;1844877;78;21521;-67
2022/07/24 12:41:23;;;;;;;3.52;2.90;;;28.00;61.40;;;;;;1846862;78;21016;-66
2022/07/24 12:43:55;;;;;;;3.30;2.58;;;28.10;61.30;;;;;;1849373;77;21110;-67
2022/07/24 12:46:26;;;;;;;6.17;2.87;;;28.20;60.40;;;;;;1849768;77;21024;-68
2022/07/24 12:49:04;;;;;;;5.83;2.95;;;28.30;60.00;;;;;;1845377;77;21031;-68
2022/07/24 12:51:50;;;;;;;3.65;2.80;;;28.30;59.80;;;;;;1849676;77;20997;-68
2022/07/24 12:54:22;;;;;;;5.50;3.47;;;28.30;60.10;;;;;;1849648;77;21012;-67
2022/07/24 12:56:53;;;;;;;4.67;3.10;;;28.40;60.40;;;;;;1849802;77;21016;-67
2022/07/24 12:59:39;;;;;;;3.65;2.80;;;28.40;60.20;;;;;;1849731;77;21094;-67
2022/07/24 13:02:13;;;;;;;2.87;2.58;;;28.30;59.60;;;;;;1848514;77;21082;-68
2022/07/24 13:04:47;;;;;;;3.83;3.37;;;28.30;60.30;;;;;;1849878;77;21004;-68
2022/07/24 13:07:18;;;;;;;2.98;2.77;;;28.20;60.70;;;;;;1849853;77;21066;-68